CheckWX is a tool to help pilots better visualize weather data.  It is not intended as a substitute for an official pre-flight weather briefing.

00:15:24 UTC

VGHS TAF
Dhaka
Dhaka, Bangladesh
TAF VGHS 282300Z 2900/3006 00000KT 1000 BR SCT010 BKN100 TEMPO 2900/2903 00000KT 0700 FG BKN005 BECMG 2904/2906 12006KT 1500 BR SCT015 BKN100 BECMG 2908/2910 3000 HZ SCT015 SCT100 BECMG 2920/2922 00000KT 1500 BR BECMG 2923/3001 1000 BR SCT010

Jan-29@
00:00 UTC

Jan-29 @ 00:00 UTC

Jan-29@
04:00 UTC

Jan-29 @ 04:00 UTC

TAF VGHS 282300Z 2900/3006 00000KT 1000 BR SCT010 BKN100
Conditions
Mist
Cloud Levels
  • Scattered at 1,000' AGL
  • Broken at 10,000' AGL

Jan-29@
00:00 UTC

Jan-29 @ 00:00 UTC

Jan-29@
03:00 UTC

Jan-29 @ 03:00 UTC

TEMPO 2900/2903 00000KT 0700 FG BKN005

Temporary

Temporary Changes expected for less than half the time period

Conditions
Fog
Cloud Levels
  • Broken at 500' AGL

Jan-29@
04:00 UTC

Jan-29 @ 04:00 UTC

Jan-29@
08:00 UTC

Jan-29 @ 08:00 UTC

BECMG 2904/2906 12006KT 1500 BR SCT015 BKN100

Becoming

Becoming Conditions expected by Wed, Jan 29, 2020 @ 06:00 UTC

Wind
  • 120° at 6 KTS
Conditions
Mist
Cloud Levels
  • Scattered at 1,500' AGL
  • Broken at 10,000' AGL

Jan-29@
08:00 UTC

Jan-29 @ 08:00 UTC

Jan-29@
20:00 UTC

Jan-29 @ 20:00 UTC

BECMG 2908/2910 3000 HZ SCT015 SCT100

Becoming

Becoming Conditions expected by Wed, Jan 29, 2020 @ 10:00 UTC

Wind
  • 120° at 6 KTS
Conditions
Haze
Cloud Levels
  • Scattered at 1,500' AGL
  • Scattered at 10,000' AGL

Jan-29@
20:00 UTC

Jan-29 @ 20:00 UTC

Jan-29@
23:00 UTC

Jan-29 @ 23:00 UTC

BECMG 2920/2922 00000KT 1500 BR

Becoming

Becoming Conditions expected by Wed, Jan 29, 2020 @ 22:00 UTC

Conditions
Mist
Cloud Levels
  • Scattered at 1,500' AGL
  • Scattered at 10,000' AGL

Jan-29@
23:00 UTC

Jan-29 @ 23:00 UTC

Jan-30@
06:00 UTC

Jan-30 @ 06:00 UTC

BECMG 2923/3001 1000 BR SCT010

Becoming

Becoming Conditions expected by Thu, Jan 30, 2020 @ 01:00 UTC

Conditions
Mist
Cloud Levels
  • Scattered at 1,000' AGL